createdAt,value
2019-02-24T00:00:48.251Z,71.84
2019-02-24T00:03:18.885Z,71.64
2019-02-24T00:05:49.697Z,71.98
2019-02-24T00:08:23.663Z,71.76
2019-02-24T00:10:56.971Z,71.40
2019-02-24T00:13:27.795Z,71.68
2019-02-24T00:15:58.535Z,71.46
2019-02-24T00:18:29.400Z,71.70
2019-02-24T00:21:00.165Z,71.75
2019-02-24T00:23:35.236Z,71.79
2019-02-24T00:26:09.789Z,71.99
2019-02-24T00:28:40.515Z,72.05
2019-02-24T00:31:13.996Z,72.37
2019-02-24T00:33:47.391Z,72.69
2019-02-24T00:36:18.165Z,71.86
2019-02-24T00:38:49.498Z,71.98
2019-02-24T00:41:20.807Z,72.32
2019-02-24T00:43:51.698Z,72.30
2019-02-24T00:46:24.758Z,72.43
2019-02-24T00:48:55.550Z,72.34
2019-02-24T00:51:26.625Z,72.22
2019-02-24T00:53:57.403Z,72.71
2019-02-24T00:56:28.119Z,72.54
2019-02-24T00:58:58.909Z,72.58
2019-02-24T01:01:29.723Z,72.70
2019-02-24T01:04:00.894Z,72.60
2019-02-24T01:06:31.677Z,72.91
2019-02-24T01:09:02.454Z,73.45
2019-02-24T01:11:34.446Z,73.74
2019-02-24T01:14:05.171Z,73.52
2019-02-24T01:16:36.385Z,73.22
2019-02-24T01:19:07.154Z,73.42
2019-02-24T01:21:38.115Z,73.69
2019-02-24T01:24:08.822Z,73.63
2019-02-24T01:26:41.160Z,73.60
2019-02-24T01:29:11.903Z,73.03
2019-02-24T01:31:42.760Z,73.47
2019-02-24T01:34:13.480Z,73.78
2019-02-24T01:36:45.485Z,73.49
2019-02-24T01:39:17.093Z,73.64
2019-02-24T01:41:47.863Z,73.63
2019-02-24T01:44:18.599Z,73.08
2019-02-24T01:46:49.397Z,73.09
2019-02-24T01:49:20.175Z,73.50
2019-02-24T01:51:50.927Z,73.74
2019-02-24T01:54:21.684Z,73.43
2019-02-24T01:56:52.454Z,73.61
2019-02-24T01:59:23.230Z,73.61
2019-02-24T02:01:53.945Z,73.56
2019-02-24T02:04:24.702Z,73.17
2019-02-24T02:06:55.480Z,73.33
2019-02-24T02:09:26.269Z,73.72
2019-02-24T02:11:56.974Z,73.47
2019-02-24T02:14:27.762Z,74.00
2019-02-24T02:16:58.522Z,73.53
2019-02-24T02:19:29.316Z,73.91
2019-02-24T02:22:00.042Z,74.02
2019-02-24T02:24:30.852Z,73.87
2019-02-24T02:27:01.685Z,73.81
2019-02-24T02:29:32.447Z,73.98
2019-02-24T02:32:03.152Z,74.25
2019-02-24T02:34:33.889Z,74.94
2019-02-24T02:37:04.662Z,74.75
2019-02-24T02:39:35.547Z,75.40
2019-02-24T02:42:06.293Z,75.83
2019-02-24T02:44:37.134Z,75.52
2019-02-24T02:47:07.933Z,75.34
2019-02-24T02:49:39.169Z,75.66
2019-02-24T02:52:09.848Z,75.90
2019-02-24T02:54:40.680Z,75.94
2019-02-24T02:57:11.465Z,75.98
2019-02-24T02:59:44.875Z,76.37
2019-02-24T03:02:24.161Z,76.38
2019-02-24T03:04:49.621Z,76.02
2019-02-24T03:07:24.645Z,76.59
2019-02-24T03:09:55.360Z,77.34
2019-02-24T03:12:26.189Z,77.12
2019-02-24T03:14:57.851Z,76.48
2019-02-24T03:17:28.819Z,76.99
2019-02-24T03:19:59.546Z,77.39
2019-02-24T03:22:30.803Z,77.96
2019-02-24T03:25:03.130Z,77.87
2019-02-24T03:27:33.831Z,77.55
2019-02-24T03:30:05.141Z,77.28
2019-02-24T03:32:37.445Z,77.32
2019-02-24T03:35:09.043Z,77.84
2019-02-24T03:37:39.794Z,78.25
2019-02-24T03:40:10.832Z,78.45
2019-02-24T03:42:41.650Z,78.35
2019-02-24T03:45:12.391Z,78.15
2019-02-24T03:47:44.671Z,77.95
2019-02-24T03:50:17.972Z,78.25
2019-02-24T03:52:48.726Z,78.37
2019-02-24T03:55:19.427Z,78.39
2019-02-24T03:57:50.270Z,78.56
2019-02-24T04:00:21.021Z,77.80
2019-02-24T04:02:51.778Z,77.54
2019-02-24T04:05:22.512Z,78.08
2019-02-24T04:07:54.299Z,77.76
2019-02-24T04:10:26.343Z,78.20
2019-02-24T04:12:57.094Z,77.70
2019-02-24T04:15:27.824Z,77.89
2019-02-24T04:17:58.584Z,77.41
2019-02-24T04:20:29.321Z,77.33
2019-02-24T04:23:00.105Z,77.00
2019-02-24T04:25:32.394Z,76.97
2019-02-24T04:28:03.128Z,77.25
2019-02-24T04:30:34.341Z,77.42
2019-02-24T04:33:05.165Z,78.28
2019-02-24T04:35:35.939Z,78.41
2019-02-24T04:38:06.696Z,77.44
2019-02-24T04:40:37.421Z,76.03
2019-02-24T04:43:08.213Z,76.23
2019-02-24T04:45:39.106Z,75.73
2019-02-24T04:48:11.319Z,75.79
2019-02-24T04:50:42.071Z,75.43
2019-02-24T04:53:15.156Z,75.03
2019-02-24T04:55:49.623Z,74.85
2019-02-24T04:58:23.919Z,75.06
2019-02-24T05:00:54.758Z,74.30
2019-02-24T05:03:28.170Z,73.27
2019-02-24T05:05:59.082Z,72.03
2019-02-24T05:08:31.488Z,72.12
2019-02-24T05:11:02.372Z,71.68
2019-02-24T05:13:34.371Z,71.85
2019-02-24T05:16:05.300Z,71.76
2019-02-24T05:18:39.160Z,71.74
2019-02-24T05:21:09.935Z,72.52
2019-02-24T05:23:42.885Z,72.65
2019-02-24T05:26:13.290Z,72.69
2019-02-24T05:28:45.633Z,72.65
2019-02-24T05:31:18.081Z,72.41
2019-02-24T05:33:48.998Z,72.54
2019-02-24T05:36:19.831Z,72.22
2019-02-24T05:38:50.537Z,71.79
2019-02-24T05:41:21.328Z,71.14
2019-02-24T05:43:52.074Z,71.09
2019-02-24T05:46:22.876Z,70.55
2019-02-24T05:48:53.684Z,69.22
2019-02-24T05:51:24.498Z,69.04
2019-02-24T05:53:55.319Z,68.49
2019-02-24T05:56:26.102Z,68.54
2019-02-24T05:58:59.047Z,67.70
2019-02-24T06:01:29.962Z,67.92
2019-02-24T06:04:00.710Z,67.28
2019-02-24T06:06:31.491Z,66.66
2019-02-24T06:09:02.338Z,66.35
2019-02-24T06:11:33.198Z,65.27
2019-02-24T06:14:06.868Z,64.50
2019-02-24T06:16:40.203Z,63.80
2019-02-24T06:19:11.013Z,62.04
2019-02-24T06:21:46.798Z,62.04
2019-02-24T06:24:17.750Z,61.75
2019-02-24T06:27:00.235Z,62.34
2019-02-24T06:29:35.283Z,61.92
2019-02-24T06:32:06.724Z,62.01
2019-02-24T06:34:39.758Z,61.37
2019-02-24T06:37:10.285Z,62.59
2019-02-24T06:39:40.815Z,61.09
2019-02-24T06:42:13.023Z,60.45
2019-02-24T06:44:43.474Z,59.79
2019-02-24T06:47:15.993Z,59.08
2019-02-24T06:49:48.062Z,58.31
2019-02-24T06:52:27.986Z,57.33
2019-02-24T06:54:59.092Z,56.86
2019-02-24T06:57:29.698Z,56.75
2019-02-24T07:00:04.454Z,56.50
2019-02-24T07:02:39.171Z,56.68
2019-02-24T07:05:11.305Z,55.68
2019-02-24T07:07:41.790Z,54.76
2019-02-24T07:10:12.399Z,52.79
2019-02-24T07:12:47.221Z,51.66
2019-02-24T07:15:22.844Z,51.69
2019-02-24T07:17:54.645Z,50.20
2019-02-24T07:24:11.344Z,51.19
2019-02-24T07:26:58.369Z,49.82
2019-02-24T07:29:29.309Z,50.31
2019-02-24T07:32:07.470Z,50.00
2019-02-24T07:34:38.083Z,49.65
2019-02-24T07:37:13.038Z,48.68
2019-02-24T07:39:54.833Z,48.33
2019-02-24T07:42:32.484Z,48.45
2019-02-24T07:45:06.252Z,48.48
2019-02-24T07:47:36.814Z,48.36
2019-02-24T07:53:20.465Z,48.23
2019-02-24T07:55:50.924Z,47.74
2019-02-24T07:58:21.380Z,47.65
2019-02-24T08:00:51.863Z,47.52
2019-02-24T08:03:23.160Z,47.72
2019-02-24T08:05:57.738Z,47.50
2019-02-24T08:08:28.330Z,46.83
2019-02-24T08:10:58.988Z,47.07
2019-02-24T08:13:29.748Z,47.13
2019-02-24T08:16:00.350Z,46.65
2019-02-24T08:18:30.823Z,46.67
2019-02-24T08:21:01.438Z,46.93
2019-02-24T08:23:32.017Z,46.51
2019-02-24T08:26:02.563Z,45.99
2019-02-24T08:28:34.670Z,45.96
2019-02-24T08:31:05.116Z,46.23
2019-02-24T08:33:40.502Z,46.23
2019-02-24T08:36:14.114Z,45.91
2019-02-24T08:38:47.815Z,45.41
2019-02-24T08:41:18.477Z,45.14
2019-02-24T08:43:53.661Z,45.76
2019-02-24T08:46:27.494Z,44.92
2019-02-24T08:52:14.740Z,43.38
2019-02-24T08:54:46.524Z,43.72
2019-02-24T09:00:58.919Z,43.03
2019-02-24T09:03:29.554Z,43.13
2019-02-24T09:06:03.095Z,43.20
2019-02-24T09:08:34.623Z,43.26
2019-02-24T09:11:05.650Z,40.72
2019-02-24T09:13:39.348Z,38.46
2019-02-24T09:16:09.488Z,38.46
2019-02-24T09:18:40.000Z,38.04
2019-02-24T09:21:27.289Z,39.13
2019-02-24T09:23:59.314Z,39.96
2019-02-24T09:26:29.887Z,39.27
2019-02-24T09:29:10.684Z,40.30
2019-02-24T09:31:43.906Z,39.72
2019-02-24T09:34:36.017Z,38.08
2019-02-24T09:37:07.408Z,38.16
2019-02-24T09:39:37.941Z,38.68
2019-02-24T09:42:19.181Z,37.47
2019-02-24T09:44:51.857Z,37.47
2019-02-24T09:50:04.189Z,34.55
2019-02-24T09:52:43.657Z,34.55
2019-02-24T09:55:14.142Z,34.93
2019-02-24T09:57:47.836Z,35.58
2019-02-24T10:00:25.539Z,36.29
2019-02-24T10:02:57.537Z,36.29
2019-02-24T10:05:33.771Z,36.94
2019-02-24T10:08:04.538Z,37.13
2019-02-24T10:11:07.301Z,36.82
2019-02-24T10:13:37.735Z,36.82
2019-02-24T10:19:16.045Z,38.12
2019-02-24T10:21:48.791Z,38.06
2019-02-24T10:24:20.608Z,38.51
2019-02-24T10:26:50.994Z,39.04
2019-02-24T10:29:21.548Z,38.80
2019-02-24T10:31:55.874Z,38.69
2019-02-24T10:34:26.328Z,38.90
2019-02-24T10:36:56.937Z,39.19
2019-02-24T10:39:29.864Z,39.45
2019-02-24T10:44:50.721Z,39.35
2019-02-24T10:47:21.176Z,39.55
2019-02-24T10:49:51.764Z,38.85
2019-02-24T10:52:31.372Z,39.08
2019-02-24T10:55:02.010Z,38.79
2019-02-24T10:57:46.859Z,38.92
2019-02-24T11:00:19.348Z,39.13
2019-02-24T11:02:49.794Z,39.27
2019-02-24T11:05:20.479Z,38.75
2019-02-24T11:07:50.930Z,39.33
2019-02-24T11:10:21.571Z,38.95
2019-02-24T11:12:55.218Z,39.21
2019-02-24T11:15:25.823Z,39.45
2019-02-24T11:17:56.251Z,39.15
2019-02-24T11:20:26.745Z,39.12
2019-02-24T11:23:16.222Z,38.89
2019-02-24T11:25:51.765Z,39.00
2019-02-24T11:28:23.601Z,39.25
2019-02-24T11:31:10.190Z,38.96
2019-02-24T11:33:40.641Z,39.00
2019-02-24T11:36:11.198Z,39.00
2019-02-24T11:41:53.325Z,38.41
2019-02-24T11:44:23.867Z,38.66
2019-02-24T11:47:18.112Z,38.40
2019-02-24T11:49:49.920Z,38.49
2019-02-24T11:52:20.492Z,38.73
2019-02-24T11:54:50.955Z,38.73
2019-02-24T11:57:24.659Z,38.58
2019-02-24T11:59:56.972Z,38.59
2019-02-24T12:02:34.152Z,38.31
2019-02-24T12:07:49.035Z,38.34
2019-02-24T12:10:19.480Z,38.84
2019-02-24T12:12:50.109Z,38.84
2019-02-24T12:15:22.025Z,38.64
2019-02-24T12:17:52.600Z,38.59
2019-02-24T12:20:25.454Z,38.23
2019-02-24T12:23:18.445Z,38.40
2019-02-24T12:25:48.969Z,38.70
2019-02-24T12:28:19.435Z,38.67
2019-02-24T12:30:51.900Z,38.62
2019-02-24T12:33:26.175Z,38.59
2019-02-24T12:38:54.625Z,39.00
2019-02-24T12:41:20.391Z,39.05
2019-02-24T12:43:53.545Z,39.29
2019-02-24T12:46:26.793Z,39.77
2019-02-24T12:48:57.358Z,39.77
2019-02-24T12:51:29.489Z,39.31
2019-02-24T12:54:00.008Z,39.49
2019-02-24T12:56:30.483Z,39.63
2019-02-24T12:59:00.897Z,39.21
2019-02-24T13:01:32.011Z,39.14
2019-02-24T13:04:03.590Z,38.79
2019-02-24T13:06:48.726Z,39.32
2019-02-24T13:09:45.245Z,38.84
2019-02-24T13:12:20.025Z,38.55
2019-02-24T13:14:50.831Z,38.48
2019-02-24T13:17:21.253Z,38.48
2019-02-24T13:19:51.733Z,38.06
2019-02-24T13:22:23.214Z,37.36
2019-02-24T13:24:57.557Z,37.28
2019-02-24T13:30:21.959Z,37.45
2019-02-24T13:32:52.396Z,38.63
2019-02-24T13:35:22.969Z,38.75
2019-02-24T13:37:53.510Z,39.34
2019-02-24T13:40:27.753Z,39.44
2019-02-24T13:42:58.198Z,39.70
2019-02-24T13:45:28.664Z,40.17
2019-02-24T13:47:59.100Z,41.07
2019-02-24T13:50:29.578Z,41.05
2019-02-24T13:53:02.796Z,41.72
2019-02-24T13:55:33.286Z,41.58
2019-02-24T13:58:04.567Z,42.09
2019-02-24T14:00:35.079Z,42.02
2019-02-24T14:03:05.507Z,42.25
2019-02-24T14:05:36.049Z,42.12
2019-02-24T14:08:06.478Z,41.98
2019-02-24T14:10:36.935Z,41.98
2019-02-24T14:13:07.440Z,42.06
2019-02-24T14:15:37.894Z,42.06
2019-02-24T14:18:09.824Z,42.04
2019-02-24T14:20:40.582Z,41.83
2019-02-24T14:23:11.065Z,41.82
2019-02-24T14:25:41.442Z,41.78
2019-02-24T14:28:11.894Z,41.82
2019-02-24T14:30:42.357Z,41.88
2019-02-24T14:33:12.859Z,41.94
2019-02-24T14:35:43.385Z,41.73
2019-02-24T14:38:13.842Z,42.24
2019-02-24T14:40:45.480Z,42.25
2019-02-24T14:43:15.931Z,42.76
2019-02-24T14:45:49.628Z,42.48
2019-02-24T14:48:18.483Z,42.51
2019-02-24T14:50:48.942Z,42.68
2019-02-24T14:53:19.504Z,42.79
2019-02-24T14:55:50.005Z,42.89
2019-02-24T14:58:22.119Z,42.75
2019-02-24T15:00:52.567Z,42.88
2019-02-24T15:03:23.125Z,42.72
2019-02-24T15:05:53.654Z,43.27
2019-02-24T15:08:24.089Z,43.17
2019-02-24T15:12:40.601Z,43.83
2019-02-24T15:14:27.542Z,44.12
2019-02-24T15:17:48.165Z,43.12
2019-02-24T15:19:54.122Z,42.91
2019-02-24T15:22:35.248Z,42.91
2019-02-24T15:25:02.849Z,43.90
2019-02-24T15:27:39.918Z,44.00
2019-02-24T15:30:23.735Z,44.00
2019-02-24T15:46:47.321Z,43.89
2019-02-24T15:52:25.728Z,44.73
2019-02-24T16:03:54.176Z,44.69
2019-02-24T16:22:32.890Z,45.84
2019-02-24T16:33:51.513Z,46.54
2019-02-24T16:36:25.293Z,46.60
2019-02-24T16:42:28.732Z,46.72
2019-02-24T16:45:03.676Z,46.80
2019-02-24T16:47:38.197Z,47.56
2019-02-24T16:57:04.612Z,47.29
2019-02-24T17:16:51.534Z,47.13
2019-02-24T17:19:24.956Z,47.37
2019-02-24T17:21:56.955Z,47.22
2019-02-24T17:27:58.370Z,47.05
2019-02-24T17:33:40.650Z,46.77
2019-02-24T17:39:20.435Z,46.34
2019-02-24T17:41:55.408Z,46.19
2019-02-24T17:54:07.868Z,46.12
2019-02-24T17:59:40.394Z,45.74
2019-02-24T18:02:14.296Z,45.50
2019-02-24T18:14:22.088Z,45.72
2019-02-24T18:25:49.581Z,46.72
2019-02-24T18:31:50.607Z,47.08
2019-02-24T18:34:48.600Z,46.60
2019-02-24T18:43:07.625Z,46.97
2019-02-24T18:48:37.143Z,47.14
2019-02-24T18:51:12.540Z,47.14
2019-02-24T18:53:43.131Z,47.50
2019-02-24T19:02:40.618Z,48.22
2019-02-24T19:08:35.748Z,48.09
2019-02-24T19:14:02.324Z,48.88
2019-02-24T19:19:48.445Z,49.62
2019-02-24T19:22:27.204Z,49.14
2019-02-24T19:28:04.873Z,49.81
2019-02-24T19:30:36.822Z,49.81
2019-02-24T19:33:23.686Z,50.77
2019-02-24T19:35:54.375Z,50.42
2019-02-24T19:41:22.066Z,50.69
2019-02-24T19:43:55.199Z,50.77
2019-02-24T19:49:21.098Z,51.53
2019-02-24T19:55:37.984Z,51.18
2019-02-24T19:58:18.052Z,51.73
2019-02-24T20:07:42.313Z,52.28
2019-02-24T21:07:12.655Z,54.11
2019-02-24T21:14:48.281Z,54.55
